Time;durP1;ratioP1;P1;durP2;ratioP2;P2;SDS_P1;SDS_P2;PMS_P1;PMS_P2;Temp;Humidity;BMP_temperature;BMP_pressure;BME280_temperature;BME280_humidity;BME280_pressure;Samples;Min_cycle;Max_cycle;Signal;HPM_P1;HPM_P2
2022/10/10 00:00:46;;;;;;;8.57;6.38;;;;;;;10.42;76.92;100174.19;4979668;28;20038;-93
2022/10/10 00:03:11;;;;;;;11.18;5.72;;;;;;;10.75;76.22;100164.41;4978306;28;20120;-93
2022/10/10 00:05:37;;;;;;;10.35;6.43;;;;;;;10.83;76.57;100184.69;4978224;28;20034;-94
2022/10/10 00:08:03;;;;;;;7.97;5.75;;;;;;;10.77;76.27;100177.59;4962469;28;20153;-94
2022/10/10 00:10:28;;;;;;;15.68;6.25;;;;;;;10.69;76.24;100173.47;4978817;28;20030;-94
2022/10/10 00:12:54;;;;;;;8.13;5.30;;;;;;;10.78;75.75;100179.25;4978053;28;20030;-94
2022/10/10 00:15:20;;;;;;;7.72;5.63;;;;;;;10.92;75.37;100183.19;4995330;28;20456;-94
2022/10/10 00:17:45;;;;;;;10.13;5.38;;;;;;;10.91;75.02;100174.31;4978721;28;20034;-93
2022/10/10 00:20:12;;;;;;;7.03;5.15;;;;;;;10.97;74.69;100169.78;4978771;28;20428;-93
2022/10/10 00:22:37;;;;;;;7.28;5.57;;;;;;;11.20;74.32;100184.06;4978930;28;20026;-94
2022/10/10 00:25:09;;;;;;;9.95;5.40;;;;;;;11.21;74.04;100183.00;4961986;28;20420;-94
2022/10/10 00:27:35;;;;;;;7.55;4.93;;;;;;;11.23;73.93;100173.59;4979322;28;20034;-94
2022/10/10 00:30:01;;;;;;;7.95;4.80;;;;;;;11.24;74.62;100199.47;4978449;28;20113;-94
2022/10/10 00:32:26;;;;;;;7.75;5.32;;;;;;;11.19;74.57;100182.44;4977635;28;20031;-94
2022/10/10 00:34:54;;;;;;;7.55;5.25;;;;;;;11.26;74.36;100200.03;4977947;28;20034;-94
2022/10/10 00:37:20;;;;;;;6.47;4.97;;;;;;;11.02;74.97;100180.63;4946681;28;20137;-94
2022/10/10 00:39:45;;;;;;;6.07;4.50;;;;;;;11.26;74.34;100191.94;4945600;28;20026;-94
2022/10/10 00:42:14;;;;;;;7.63;5.70;;;;;;;11.01;74.90;100179.00;4944612;28;20022;-94
2022/10/10 00:44:40;;;;;;;7.75;5.32;;;;;;;11.05;74.60;100172.03;4946354;28;20030;-94
2022/10/10 00:47:06;;;;;;;7.90;4.88;;;;;;;11.10;74.64;100211.69;4962210;28;20022;-94
2022/10/10 00:49:32;;;;;;;10.00;5.78;;;;;;;10.98;74.61;100182.19;4961657;28;20093;-93
2022/10/10 00:51:58;;;;;;;9.57;5.45;;;;;;;10.89;74.71;100202.53;4945250;28;20031;-94
2022/10/10 00:54:23;;;;;;;7.45;5.00;;;;;;;10.74;75.34;100215.81;4945568;28;20120;-94
2022/10/10 00:56:54;;;;;;;8.88;4.70;;;;;;;10.56;75.49;100206.13;4945793;28;20022;-93
2022/10/10 00:59:19;;;;;;;7.10;5.07;;;;;;;10.49;76.07;100214.41;4946288;28;20058;-93
2022/10/10 01:01:46;;;;;;;7.93;5.15;;;;;;;10.59;75.82;100202.97;4961474;28;20449;-94
2022/10/10 01:04:36;;;;;;;5.88;4.88;;;;;;;10.93;75.61;100219.84;4977493;28;20488;-94
2022/10/10 01:07:13;;;;;;;7.55;5.28;;;;;;;11.06;75.00;100219.50;4995255;28;20027;-95
2022/10/10 01:09:39;;;;;;;6.63;4.82;;;;;;;11.28;74.29;100224.06;4958285;28;20487;-93
2022/10/10 01:12:28;;;;;;;6.70;4.80;;;;;;;11.35;73.52;100224.69;4942061;28;20122;-94
2022/10/10 01:15:20;;;;;;;7.18;4.68;;;;;;;11.37;73.43;100232.50;4957870;28;20026;-94
2022/10/10 01:18:08;;;;;;;6.25;4.60;;;;;;;11.38;73.45;100234.16;4951648;28;20456;-93
2022/10/10 01:21:03;;;;;;;9.05;4.90;;;;;;;11.43;73.21;100221.50;4941766;28;20035;-94
2022/10/10 01:23:28;;;;;;;8.35;5.03;;;;;;;11.60;72.93;100242.19;4952563;28;20034;-93
2022/10/10 01:26:12;;;;;;;7.25;5.05;;;;;;;11.42;73.62;100241.47;4958052;28;20098;-94
2022/10/10 01:28:48;;;;;;;8.48;5.43;;;;;;;11.49;73.22;100235.88;4957705;28;20053;-94
2022/10/10 01:31:15;;;;;;;8.90;5.28;;;;;;;11.16;73.71;100205.31;4926177;28;20046;-94
2022/10/10 01:33:48;;;;;;;7.05;5.30;;;;;;;11.16;74.67;100239.53;4941861;28;20026;-93
2022/10/10 01:36:23;;;;;;;8.63;6.00;;;;;;;10.89;74.97;100222.25;4967099;28;20445;-94
2022/10/10 01:39:06;;;;;;;8.10;5.72;;;;;;;10.77;75.81;100223.41;4957748;28;20027;-93
2022/10/10 01:41:40;;;;;;;10.00;5.97;;;;;;;10.70;75.81;100239.75;4958205;28;20413;-93
2022/10/10 01:44:05;;;;;;;8.48;5.43;;;;;;;10.53;76.13;100231.69;4958040;28;20071;-94
2022/10/10 01:46:31;;;;;;;7.90;5.65;;;;;;;10.38;75.99;100234.16;4957284;28;20122;-94
2022/10/10 01:49:00;;;;;;;10.15;5.93;;;;;;;10.29;76.42;100225.63;4957448;28;20058;-94
2022/10/10 01:51:53;;;;;;;10.45;6.38;;;;;;;10.39;77.16;100252.75;4957747;28;20037;-95
2022/10/10 01:54:30;;;;;;;9.20;6.07;;;;;;;10.21;76.76;100253.78;4973658;28;20026;-94
2022/10/10 01:57:03;;;;;;;10.57;5.93;;;;;;;10.09;76.52;100251.16;4973478;28;20093;-94
2022/10/10 01:59:59;;;;;;;8.77;6.05;;;;;;;9.96;77.44;100242.59;4967331;28;20030;-94
2022/10/10 02:02:42;;;;;;;10.52;5.70;;;;;;;9.85;77.37;100233.53;4992937;28;20062;-94
2022/10/10 02:05:32;;;;;;;10.15;6.18;;;;;;;9.95;77.81;100260.59;4962208;28;20038;-94
2022/10/10 02:08:33;;;;;;;11.93;6.20;;;;;;;9.75;77.48;100241.41;4961558;28;20034;-94
2022/10/10 02:11:01;;;;;;;8.88;6.82;;;;;;;9.78;77.83;100249.00;4976441;28;20456;-94
2022/10/10 02:13:31;;;;;;;14.75;6.40;;;;;;;9.71;77.65;100228.47;4960563;28;20093;-94
2022/10/10 02:15:56;;;;;;;11.80;7.13;;;;;;;10.02;77.03;100233.53;4960181;28;20037;-94
2022/10/10 02:18:23;;;;;;;8.63;6.55;;;;;;;9.90;77.76;100233.63;4977638;28;20030;-93
2022/10/10 02:20:49;;;;;;;9.43;6.60;;;;;;;9.87;77.65;100251.03;4960661;28;20543;-93
2022/10/10 02:23:15;;;;;;;9.10;6.55;;;;;;;9.68;78.13;100230.81;4960729;28;20124;-94
2022/10/10 02:25:41;;;;;;;10.35;6.90;;;;;;;9.76;78.21;100245.75;4976359;28;20488;-94
2022/10/10 02:28:39;;;;;;;9.80;6.70;;;;;;;9.72;78.04;100231.97;4977230;28;20034;-94
2022/10/10 02:31:08;;;;;;;16.52;7.07;;;;;;;10.08;78.07;100268.34;4945105;28;20041;-93
2022/10/10 02:33:46;;;;;;;9.35;6.65;;;;;;;10.02;77.39;100252.38;4972880;28;20577;-94
2022/10/10 02:36:13;;;;;;;10.80;6.82;;;;;;;10.08;78.11;100281.00;4982409;28;20122;-94
2022/10/10 02:38:38;;;;;;;10.48;6.90;;;;;;;10.16;77.80;100282.50;4944135;28;20027;-94
2022/10/10 02:41:04;;;;;;;10.30;7.22;;;;;;;10.02;77.92;100280.13;4959635;28;20072;-93
2022/10/10 02:43:31;;;;;;;10.32;6.72;;;;;;;9.95;77.90;100270.56;4976563;28;20033;-94
2022/10/10 02:45:58;;;;;;;11.77;7.25;;;;;;;9.86;78.23;100265.56;4960249;28;20026;-94
2022/10/10 02:48:23;;;;;;;10.48;6.75;;;;;;;9.91;78.05;100278.28;4944568;28;20053;-94
2022/10/10 02:50:49;;;;;;;10.00;6.68;;;;;;;9.77;78.20;100255.44;4944193;28;20023;-94
2022/10/10 02:53:14;;;;;;;9.50;6.97;;;;;;;9.86;78.59;100278.22;4960115;28;20038;-93
2022/10/10 02:55:43;;;;;;;9.45;6.95;;;;;;;9.83;78.02;100274.09;4975881;28;20094;-94
2022/10/10 02:58:09;;;;;;;11.68;7.63;;;;;;;9.80;78.11;100276.47;4960639;28;20034;-94
2022/10/10 03:00:34;;;;;;;9.32;7.00;;;;;;;9.76;77.76;100280.72;4959812;28;20428;-94
2022/10/10 03:03:00;;;;;;;10.88;7.85;;;;;;;9.75;77.72;100293.31;4944227;28;20029;-94
2022/10/10 03:05:25;;;;;;;10.85;6.97;;;;;;;9.59;78.05;100283.34;4947563;28;20030;-94
2022/10/10 03:07:51;;;;;;;12.57;7.18;;;;;;;9.56;78.09;100291.88;4963329;28;20082;-94
2022/10/10 03:10:16;;;;;;;12.50;8.00;;;;;;;9.46;78.55;100281.72;4963430;28;20031;-94
2022/10/10 03:12:42;;;;;;;10.95;7.13;;;;;;;9.39;78.00;100276.50;4963447;28;20109;-94
2022/10/10 03:15:08;;;;;;;10.77;6.90;;;;;;;9.38;77.88;100291.00;4947873;28;20484;-94
2022/10/10 03:17:33;;;;;;;9.50;6.88;;;;;;;9.28;78.53;100291.59;4946772;28;20031;-93
2022/10/10 03:19:59;;;;;;;10.63;7.13;;;;;;;9.12;78.67;100294.22;4947502;28;20520;-94
2022/10/10 03:22:24;;;;;;;14.05;7.30;;;;;;;9.04;79.18;100298.06;4980151;28;20105;-94
2022/10/10 03:24:50;;;;;;;9.02;6.57;;;;;;;9.03;79.02;100299.94;4947198;28;20026;-94
2022/10/10 03:27:15;;;;;;;10.48;6.78;;;;;;;8.94;79.79;100304.03;4962992;28;20034;-94
2022/10/10 03:29:41;;;;;;;13.90;6.97;;;;;;;8.83;79.78;100292.25;4946716;28;20034;-94
2022/10/10 03:32:12;;;;;;;12.07;7.03;;;;;;;8.93;79.46;100288.97;4954651;28;20072;-96
2022/10/10 03:34:37;;;;;;;12.77;6.78;;;;;;;8.98;79.75;100297.13;4954229;28;20101;-94
2022/10/10 03:37:03;;;;;;;11.60;7.32;;;;;;;8.93;80.01;100301.59;4981235;28;20492;-94
2022/10/10 03:39:29;;;;;;;11.15;6.97;;;;;;;8.92;79.55;100286.50;4972549;28;20089;-94
2022/10/10 03:41:54;;;;;;;10.90;7.88;;;;;;;9.06;79.34;100315.56;4962880;28;20034;-94
2022/10/10 03:44:20;;;;;;;11.23;6.85;;;;;;;8.88;79.80;100288.84;4946371;28;20037;-93
2022/10/10 03:46:45;;;;;;;11.93;7.45;;;;;;;8.88;79.84;100300.44;4946583;28;20034;-94
2022/10/10 03:49:11;;;;;;;10.30;7.07;;;;;;;8.86;79.75;100294.47;4947947;28;20043;-95
2022/10/10 03:51:36;;;;;;;35.45;7.75;;;;;;;8.97;79.71;100294.69;4997570;23;20054;-94
2022/10/10 03:54:02;;;;;;;9.57;6.15;;;;;;;9.06;79.11;100290.59;4982711;28;20084;-94
2022/10/10 03:56:28;;;;;;;10.60;6.32;;;;;;;9.16;78.39;100303.44;4982879;28;20033;-95
2022/10/10 03:58:53;;;;;;;11.20;6.38;;;;;;;9.18;78.59;100304.00;4982791;28;20018;-95
2022/10/10 04:01:19;;;;;;;12.75;7.40;;;;;;;9.12;79.34;100316.50;4982616;28;20021;-94
2022/10/10 04:03:47;;;;;;;12.43;6.57;;;;;;;8.88;79.47;100291.53;4966095;28;20021;-94
2022/10/10 04:06:15;;;;;;;10.60;7.30;;;;;;;8.92;79.21;100318.75;4967142;28;20037;-95
2022/10/10 04:08:40;;;;;;;11.23;7.40;;;;;;;8.68;79.22;100287.34;4966373;28;20029;-94
2022/10/10 04:11:06;;;;;;;10.32;7.60;;;;;;;8.73;79.72;100300.06;4982528;28;20056;-96
2022/10/10 04:13:31;;;;;;;10.05;6.82;;;;;;;8.95;79.13;100302.19;4981913;28;20029;-95
2022/10/10 04:15:59;;;;;;;13.18;8.38;;;;;;;9.00;78.96;100304.97;4967233;28;20381;-94
2022/10/10 04:18:25;;;;;;;10.77;7.05;;;;;;;9.02;78.47;100306.34;4984457;28;20041;-95
2022/10/10 04:20:51;;;;;;;11.48;7.65;;;;;;;9.05;78.92;100303.22;4968158;28;20026;-94
2022/10/10 04:23:16;;;;;;;15.75;8.50;;;;;;;8.92;78.91;100291.88;4982837;28;20034;-94
2022/10/10 04:25:42;;;;;;;11.82;8.00;;;;;;;9.00;79.28;100304.97;4983135;28;20503;-92
2022/10/10 04:28:12;;;;;;;9.45;6.80;;;;;;;9.14;78.77;100309.03;4982153;28;20037;-94
2022/10/10 04:30:38;;;;;;;11.85;8.10;;;;;;;9.29;78.35;100293.22;4982198;28;20496;-93
2022/10/10 04:33:03;;;;;;;13.15;8.48;;;;;;;9.44;78.50;100308.88;4968357;28;20106;-96
2022/10/10 04:35:38;;;;;;;11.55;7.45;;;;;;;9.44;78.49;100306.19;4968450;28;20412;-93
2022/10/10 04:38:04;;;;;;;13.80;8.35;;;;;;;9.61;77.93;100326.94;4978548;28;20046;-94
2022/10/10 04:40:32;;;;;;;15.15;9.60;;;;;;;9.60;77.58;100309.97;4963728;28;20030;-96
2022/10/10 04:43:02;;;;;;;23.48;9.85;;;;;;;9.68;77.77;100333.81;4947972;28;20481;-96
2022/10/10 04:45:28;;;;;;;14.05;8.40;;;;;;;9.58;77.73;100325.53;4965886;28;20054;-96
2022/10/10 04:47:53;;;;;;;14.43;8.20;;;;;;;9.59;77.78;100331.75;4981635;28;20113;-94
2022/10/10 04:50:25;;;;;;;17.10;8.77;;;;;;;9.39;77.48;100316.81;4985061;28;20091;-95
2022/10/10 04:52:51;;;;;;;17.75;11.20;;;;;;;9.45;77.66;100321.25;4969448;28;20058;-96
2022/10/10 04:55:19;;;;;;;12.80;8.10;;;;;;;9.51;77.55;100336.44;4979471;28;20030;-96
2022/10/10 04:57:44;;;;;;;15.82;8.75;;;;;;;9.61;77.84;100345.78;4964306;28;20120;-93
2022/10/10 05:00:10;;;;;;;13.50;7.90;;;;;;;9.58;77.23;100322.84;4963044;28;20408;-95
2022/10/10 05:02:36;;;;;;;14.43;8.45;;;;;;;9.50;77.65;100305.22;4953183;28;20030;-94
2022/10/10 05:05:02;;;;;;;12.60;9.25;;;;;;;9.56;77.95;100332.22;4964823;28;20046;-96
2022/10/10 05:07:30;;;;;;;13.88;8.10;;;;;;;9.60;77.68;100328.00;4954887;28;20372;-96
2022/10/10 05:14:19;;;;;;;9.52;6.97;;;;;;;9.78;77.23;100353.91;5018726;23;20053;-96
2022/10/10 05:17:01;;;;;;;15.90;8.23;;;;;;;9.65;77.09;100315.47;4991849;28;20050;-96
2022/10/10 05:19:30;;;;;;;11.32;8.18;;;;;;;9.65;77.24;100317.31;4959811;28;20070;-94
2022/10/10 05:21:58;;;;;;;10.63;7.93;;;;;;;9.53;76.75;100316.56;4934587;28;20030;-95
2022/10/10 05:24:35;;;;;;;16.23;8.13;;;;;;;9.75;76.76;100352.47;4928255;28;20058;-96
2022/10/10 05:27:00;;;;;;;17.15;9.13;;;;;;;9.54;76.91;100327.06;4958607;28;20037;-94
2022/10/10 05:29:26;;;;;;;13.10;7.10;;;;;;;9.77;76.58;100339.63;4948773;28;20473;-94
2022/10/10 05:31:51;;;;;;;12.55;7.88;;;;;;;9.56;76.42;100316.88;4946145;28;20097;-96
2022/10/10 05:34:17;;;;;;;15.30;7.65;;;;;;;9.73;77.15;100351.91;4945671;28;20030;-95
2022/10/10 05:36:46;;;;;;;13.10;6.50;;;;;;;9.68;76.67;100338.38;4954498;28;20053;-95
2022/10/10 05:39:12;;;;;;;11.95;7.80;;;;;;;9.83;76.38;100359.38;4970792;28;20034;-96
2022/10/10 05:41:42;;;;;;;13.00;7.57;;;;;;;9.69;76.28;100330.06;4971080;28;20086;-96
2022/10/10 05:44:17;;;;;;;9.77;7.00;;;;;;;9.82;76.01;100345.13;4958923;28;20018;-96
2022/10/10 05:46:46;;;;;;;16.42;6.53;;;;;;;9.79;75.99;100350.94;4970277;28;20030;-96
2022/10/10 05:52:47;;;;;;;13.70;7.93;;;;;;;10.08;75.47;100369.81;5040624;23;20081;-96
2022/10/10 05:55:22;;;;;;;12.68;8.05;;;;;;;9.96;75.45;100358.25;4953931;28;20481;-96
2022/10/10 05:57:48;;;;;;;22.92;8.68;;;;;;;10.17;75.56;100375.59;4947991;28;20088;-96
2022/10/10 06:00:15;;;;;;;16.02;8.23;;;;;;;10.24;75.22;100368.22;4928249;28;20046;-96
2022/10/10 06:02:49;;;;;;;14.20;7.78;;;;;;;10.30;74.96;100359.22;4926672;28;20061;-96
2022/10/10 06:05:42;;;;;;;43.38;21.23;;;;;;;10.50;75.17;100385.69;4964203;28;20129;-94
2022/10/10 06:08:16;;;;;;;13.95;7.75;;;;;;;10.71;74.12;100384.16;4923998;28;20043;-95
2022/10/10 06:10:43;;;;;;;88.10;37.63;;;;;;;10.81;74.31;100378.94;4960743;28;20441;-95
2022/10/10 06:13:10;;;;;;;25.33;8.93;;;;;;;10.76;74.04;100367.25;4937280;28;20109;-95
2022/10/10 06:15:36;;;;;;;14.88;7.88;;;;;;;10.92;74.10;100382.59;4943680;28;20055;-95
2022/10/10 06:18:12;;;;;;;11.82;8.05;;;;;;;10.98;73.86;100364.59;4944760;28;20033;-95
2022/10/10 06:20:39;;;;;;;11.68;7.97;;;;;;;11.31;73.68;100385.34;4950546;28;20023;-94
2022/10/10 06:23:04;;;;;;;14.75;7.53;;;;;;;11.32;73.30;100371.56;4929257;28;20459;-93
2022/10/10 06:28:03;;;;;;;19.10;11.30;;;;;;;11.67;72.95;100381.22;4986820;28;20158;-96
2022/10/10 06:30:35;;;;;;;12.93;9.57;;;;;;;11.78;72.01;100392.94;4931935;29;20074;-96
2022/10/10 06:33:04;;;;;;;27.17;11.60;;;;;;;11.78;71.91;100373.25;4933026;29;20481;-96
2022/10/10 06:35:29;;;;;;;30.48;15.52;;;;;;;11.93;72.04;100358.09;4928246;29;20027;-95
2022/10/10 06:42:08;;;;;;;23.02;10.38;;;;;;;12.50;71.06;100397.25;4919456;29;20105;-96
2022/10/10 06:45:16;;;;;;;21.33;10.93;;;;;;;12.59;70.74;100391.41;4923042;29;20035;-95
2022/10/10 06:50:37;;;;;;;15.93;9.98;;;;;;;12.96;69.62;100388.72;4947599;29;20039;-96
2022/10/10 06:53:26;;;;;;;17.85;9.23;;;;;;;13.24;69.92;100402.97;4913380;29;20486;-96
2022/10/10 07:06:17;;;;;;;15.85;8.90;;;;;;;13.87;67.82;100393.06;4981860;28;20073;-94
2022/10/10 07:08:46;;;;;;;26.60;10.75;;;;;;;13.93;67.90;100389.28;4941240;28;20066;-94
2022/10/10 07:11:11;;;;;;;17.00;9.98;;;;;;;13.99;67.22;100370.38;4922555;29;20505;-93
2022/10/10 07:14:04;;;;;;;13.10;7.90;;;;;;;14.33;66.70;100386.94;4926308;28;20041;-92
2022/10/10 07:16:31;;;;;;;12.07;7.18;;;;;;;14.32;66.61;100369.88;4943613;28;20031;-94
2022/10/10 07:19:23;;;;;;;9.68;7.00;;;;;;;14.52;66.08;100374.50;4945518;28;20031;-94
2022/10/10 07:22:09;;;;;;;14.10;8.18;;;;;;;14.67;65.72;100362.06;4951349;29;20023;-94
2022/10/10 07:24:35;;;;;;;11.20;6.70;;;;;;;14.87;64.44;100378.31;4975306;28;20038;-93
2022/10/10 07:27:27;;;;;;;11.95;7.47;;;;;;;15.16;63.87;100391.31;4936117;28;20051;-93
2022/10/10 07:29:53;;;;;;;11.18;6.85;;;;;;;15.09;63.92;100363.69;4944409;29;20042;-96
2022/10/10 07:32:33;;;;;;;12.20;9.00;;;;;;;15.24;64.14;100362.84;4931637;29;20063;-96
2022/10/10 07:34:59;;;;;;;12.27;6.55;;;;;;;15.35;63.60;100365.22;4963832;28;20400;-93
2022/10/10 07:37:29;;;;;;;9.75;6.80;;;;;;;15.41;62.87;100374.16;4930176;29;20122;-96
2022/10/10 07:40:00;;;;;;;11.68;6.63;;;;;;;15.40;63.09;100359.00;4943660;29;20027;-96
2022/10/10 07:42:29;;;;;;;11.25;7.00;;;;;;;15.55;63.59;100371.69;4928768;29;20042;-94
2022/10/10 07:44:54;;;;;;;15.30;7.70;;;;;;;15.54;63.02;100356.47;4939611;28;20416;-96
2022/10/10 07:47:29;;;;;;;8.63;6.18;;;;;;;15.66;62.01;100356.16;4926886;29;20062;-96
2022/10/10 07:49:56;;;;;;;12.63;7.72;;;;;;;15.82;62.55;100374.06;4947408;28;20480;-96
2022/10/10 07:52:31;;;;;;;10.73;7.57;;;;;;;15.88;62.38;100362.06;4961205;28;20094;-96
2022/10/10 07:55:25;;;;;;;10.07;6.47;;;;;;;16.06;61.63;100363.34;4926353;29;20044;-94
2022/10/10 07:57:51;;;;;;;13.05;7.20;;;;;;;16.11;61.78;100344.28;4910635;29;20059;-95
2022/10/10 08:00:39;;;;;;;14.00;6.88;;;;;;;16.22;61.80;100345.03;4914878;29;20577;-95
2022/10/10 08:03:08;;;;;;;14.05;7.70;;;;;;;16.32;61.39;100350.41;4908641;29;20527;-94
2022/10/10 08:05:36;;;;;;;10.43;6.88;;;;;;;16.35;60.99;100343.56;4921424;29;20126;-95
2022/10/10 08:08:25;;;;;;;15.18;7.57;;;;;;;16.59;60.64;100351.03;4923098;29;20040;-96
2022/10/10 08:14:11;;;;;;;8.40;6.03;;;;;;;16.65;60.11;100355.31;4864405;29;20097;-95
2022/10/10 08:16:39;;;;;;;9.60;6.70;;;;;;;16.82;59.60;100346.78;4834403;29;20540;-96
2022/10/10 08:19:05;;;;;;;17.23;8.93;;;;;;;16.96;59.78;100364.06;4833065;29;20041;-94
2022/10/10 08:21:31;;;;;;;9.52;6.90;;;;;;;17.02;59.07;100346.59;4869725;28;20553;-95
2022/10/10 08:23:56;;;;;;;9.68;6.30;;;;;;;16.95;58.39;100341.50;4928023;28;20093;-94
2022/10/10 08:26:25;;;;;;;11.27;6.40;;;;;;;17.16;58.47;100344.81;4964983;28;20046;-93
2022/10/10 08:29:01;;;;;;;13.27;6.45;;;;;;;17.09;58.15;100341.59;4949229;28;20041;-95
2022/10/10 08:31:29;;;;;;;11.02;6.07;;;;;;;17.21;58.40;100343.13;4949799;28;20022;-95
2022/10/10 08:34:13;;;;;;;9.70;6.35;;;;;;;17.37;57.58;100347.31;4969324;28;20026;-94
2022/10/10 08:36:43;;;;;;;9.98;5.78;;;;;;;17.42;57.50;100341.78;4950681;28;20420;-95
2022/10/10 08:39:16;;;;;;;9.70;6.00;;;;;;;17.63;57.65;100352.44;4950573;28;20030;-95
2022/10/10 08:45:05;;;;;;;10.43;6.43;;;;;;;17.54;56.58;100331.28;4975660;28;20557;-94
2022/10/10 08:47:38;;;;;;;9.23;6.60;;;;;;;17.71;56.08;100349.06;4935964;28;20031;-92
2022/10/10 08:50:16;;;;;;;11.38;5.90;;;;;;;17.90;56.15;100349.13;4958735;28;20065;-95
2022/10/10 08:53:18;;;;;;;12.35;6.03;;;;;;;17.96;56.42;100347.94;4977333;28;20130;-92
2022/10/10 08:55:46;;;;;;;11.45;7.07;;;;;;;18.04;56.04;100332.84;4965770;28;20042;-94
2022/10/10 08:58:28;;;;;;;9.93;6.00;;;;;;;18.16;55.29;100341.41;4939854;28;20457;-96
2022/10/10 09:01:02;;;;;;;12.13;6.05;;;;;;;18.21;55.85;100324.97;4946524;28;20093;-93
2022/10/10 09:15:33;;;;;;;11.73;7.10;;;;;;;18.79;53.60;100337.41;4969477;28;19981;-95
2022/10/10 09:18:20;;;;;;;9.65;5.28;;;;;;;18.71;53.13;100338.88;4944169;28;20440;-94
2022/10/10 09:21:33;;;;;;;10.52;5.70;;;;;;;18.84;53.17;100337.31;4965543;28;20037;-93
2022/10/10 09:24:12;;;;;;;11.25;6.20;;;;;;;18.92;53.05;100319.44;4952348;28;20485;-94
2022/10/10 09:27:05;;;;;;;12.18;5.82;;;;;;;19.11;52.65;100331.13;4958982;28;20039;-95
2022/10/10 09:29:57;;;;;;;7.63;5.30;;;;;;;19.18;52.22;100322.50;4932518;29;20478;-94
2022/10/10 09:32:26;;;;;;;11.88;5.55;;;;;;;19.24;51.86;100313.13;4925907;29;20028;-96
2022/10/10 09:35:27;;;;;;;8.98;5.97;;;;;;;19.46;52.58;100336.97;4893717;29;20027;-96
2022/10/10 09:38:09;;;;;;;9.98;6.45;;;;;;;19.28;51.37;100308.66;4908413;29;20023;-96
2022/10/10 09:40:36;;;;;;;8.88;5.70;;;;;;;19.46;51.69;100331.50;4929956;29;20051;-94
2022/10/10 09:43:30;;;;;;;16.25;7.63;;;;;;;19.56;50.59;100314.09;4891428;29;20115;-95
2022/10/10 09:45:56;;;;;;;8.52;6.35;;;;;;;19.75;50.66;100322.19;4870830;29;20036;-96
2022/10/10 09:48:39;;;;;;;13.13;5.72;;;;;;;19.74;50.39;100305.00;4846046;29;20131;-96
2022/10/10 09:51:13;;;;;;;5.78;4.82;;;;;;;19.86;49.91;100304.47;4874296;29;20040;-93
2022/10/10 09:53:44;;;;;;;7.82;5.10;;;;;;;19.85;49.46;100307.50;4862272;29;20028;-96
2022/10/10 09:56:20;;;;;;;8.05;5.22;;;;;;;19.91;49.71;100298.88;4868357;29;20044;-95
2022/10/10 09:59:05;;;;;;;5.72;4.60;;;;;;;20.06;49.27;100302.38;4883517;29;20053;-96
2022/10/10 10:01:34;;;;;;;8.02;5.35;;;;;;;20.01;50.00;100280.63;4898457;29;20032;-96
2022/10/10 10:04:14;;;;;;;7.97;6.32;;;;;;;20.16;49.54;100291.19;4868193;29;20515;-96
2022/10/10 10:06:48;;;;;;;10.00;5.70;;;;;;;20.22;49.52;100287.22;4866106;29;20044;-96
2022/10/10 10:09:21;;;;;;;8.30;5.82;;;;;;;20.21;48.96;100282.84;4867083;29;20040;-96
2022/10/10 10:11:53;;;;;;;7.35;5.15;;;;;;;20.13;48.61;100269.94;4886712;29;20120;-95
2022/10/10 10:14:42;;;;;;;9.55;5.13;;;;;;;20.14;48.72;100282.50;4902301;29;20088;-95
2022/10/10 10:17:34;;;;;;;7.70;4.82;;;;;;;20.11;48.38;100264.78;4904168;29;20522;-95
2022/10/10 10:19:59;;;;;;;;;;;;;;;20.41;48.31;100284.28;4913925;29;20040;-96
2022/10/10 10:22:36;;;;;;;8.43;4.85;;;;;;;20.32;47.62;100261.56;4930985;29;19946;-96
2022/10/10 10:25:43;;;;;;;9.65;5.22;;;;;;;20.47;47.76;100274.84;4907250;29;20039;-96
2022/10/10 10:55:38;;;;;;;10.15;5.18;;;;;;;20.50;47.22;100219.50;4993171;28;20123;-96
2022/10/10 10:58:25;;;;;;;10.80;5.03;;;;;;;20.70;46.56;100236.53;4870728;29;20060;-92
2022/10/10 11:00:57;;;;;;;6.15;4.30;;;;;;;20.78;46.80;100242.03;4940299;29;20038;-94
2022/10/10 11:04:17;;;;;;;9.57;5.15;;;;;;;20.89;46.34;100236.28;4945760;29;20449;-91
2022/10/10 11:11:02;;;;;;;9.57;4.45;;;;;;;21.01;46.06;100225.53;5009148;28;20077;-96
2022/10/10 11:13:35;;;;;;;13.85;6.78;;;;;;;21.11;46.15;100213.47;4950081;29;20047;-95
2022/10/10 11:16:30;;;;;;;7.93;4.63;;;;;;;21.25;45.41;100229.78;4914432;29;20083;-96
2022/10/10 11:19:07;;;;;;;9.30;4.13;;;;;;;21.34;44.83;100214.19;4926395;29;20032;-95
2022/10/10 11:21:33;;;;;;;8.10;4.60;;;;;;;21.36;44.83;100217.41;4924930;29;20053;-93
2022/10/10 11:24:08;;;;;;;9.48;4.32;;;;;;;21.34;44.05;100214.97;4893456;29;20043;-93
2022/10/10 11:26:49;;;;;;;9.07;4.63;;;;;;;21.37;43.75;100210.78;4908096;29;20175;-96
2022/10/10 11:29:23;;;;;;;10.27;6.65;;;;;;;21.59;43.76;100212.63;4892917;29;20048;-96
2022/10/10 11:31:55;;;;;;;7.53;4.45;;;;;;;21.52;43.48;100204.88;4906819;29;20053;-95
2022/10/10 11:34:54;;;;;;;9.30;4.40;;;;;;;21.61;43.13;100212.31;4895657;29;20036;-96
2022/10/10 11:37:25;;;;;;;10.38;4.18;;;;;;;21.55;43.28;100197.94;4919010;29;20045;-96
2022/10/10 11:39:55;;;;;;;9.65;4.45;;;;;;;21.66;43.73;100204.69;4921200;29;20031;-96
2022/10/10 11:42:31;;;;;;;6.65;4.13;;;;;;;21.46;43.82;100188.91;4908681;29;20031;-94
2022/10/10 11:45:01;;;;;;;7.35;4.28;;;;;;;21.51;43.46;100188.75;4937432;28;20484;-95
2022/10/10 11:47:38;;;;;;;9.48;4.00;;;;;;;21.49;43.42;100191.81;4939666;28;20094;-92
2022/10/10 11:50:10;;;;;;;7.43;4.22;;;;;;;21.64;43.73;100209.69;4945808;28;20072;-95
2022/10/10 11:53:00;;;;;;;10.60;4.72;;;;;;;21.70;42.60;100204.88;4996609;28;20049;-95
2022/10/10 11:55:44;;;;;;;8.82;4.22;;;;;;;21.80;43.17;100197.13;4978908;28;20609;-95
2022/10/10 11:58:12;;;;;;;10.95;7.15;;;;;;;21.79;43.19;100190.03;4977400;28;20057;-94
2022/10/10 12:00:47;;;;;;;7.07;5.85;;;;;;;21.81;42.35;100178.75;5007234;28;20038;-95
2022/10/10 12:03:13;;;;;;;6.70;4.32;;;;;;;21.85;42.31;100182.47;4947430;28;20027;-95
2022/10/10 12:05:39;;;;;;;22.85;14.25;;;;;;;21.87;42.61;100179.38;4947005;28;20027;-94
2022/10/10 12:08:13;;;;;;;8.82;6.10;;;;;;;22.10;42.70;100196.44;4938943;29;20486;-95
2022/10/10 12:10:51;;;;;;;8.18;5.25;;;;;;;22.09;42.52;100175.63;4941310;29;20035;-94
2022/10/10 12:13:35;;;;;;;6.70;4.60;;;;;;;22.22;42.37;100184.81;4928757;28;20034;-93
2022/10/10 12:16:06;;;;;;;6.00;3.83;;;;;;;22.20;42.12;100166.75;4957031;28;20097;-94
2022/10/10 12:18:45;;;;;;;6.78;4.20;;;;;;;22.25;41.69;100179.50;4938050;28;20022;-94
2022/10/10 12:21:14;;;;;;;7.07;3.97;;;;;;;22.18;42.17;100182.72;4939822;29;20030;-94
2022/10/10 12:23:41;;;;;;;6.15;4.13;;;;;;;21.92;42.32;100169.06;4946854;28;20031;-94
2022/10/10 12:26:21;;;;;;;7.15;4.18;;;;;;;21.82;42.18;100161.16;4941132;29;20030;-96
2022/10/10 12:29:12;;;;;;;6.60;3.78;;;;;;;21.86;42.29;100169.56;4949308;28;20532;-96
2022/10/10 12:31:38;;;;;;;5.95;3.70;;;;;;;21.74;41.97;100156.50;4943166;28;20427;-95
2022/10/10 12:34:10;;;;;;;8.80;3.72;;;;;;;21.51;42.68;100150.38;4960186;28;20030;-90
2022/10/10 12:37:09;;;;;;;6.28;4.22;;;;;;;21.53;42.68;100184.56;4956532;28;20030;-96
2022/10/10 12:39:37;;;;;;;7.10;3.92;;;;;;;21.33;43.40;100169.53;4929755;29;20548;-95
2022/10/10 12:42:55;;;;;;;6.65;4.35;;;;;;;21.61;43.04;100179.41;4929822;29;20035;-96
2022/10/10 12:49:24;;;;;;;10.35;5.53;;;;;;;21.59;42.86;100188.75;4876061;29;20116;-95
2022/10/10 12:52:23;;;;;;;12.00;4.47;;;;;;;21.65;42.43;100194.88;4867356;29;20135;-96
2022/10/10 12:55:01;;;;;;;6.22;3.83;;;;;;;21.52;42.63;100169.25;4899167;29;20513;-96
2022/10/10 12:58:26;;;;;;;;;;;;;;;;;;;;;
2022/10/10 13:01:28;;;;;;;8.00;3.83;;;;;;;21.65;42.44;100155.72;4906333;29;20091;-96
2022/10/10 13:04:59;;;;;;;;;;;;;;;;;;;;;
2022/10/10 13:07:58;;;;;;;8.77;4.20;;;;;;;21.73;42.52;100146.69;4908469;29;20044;-95
2022/10/10 13:10:53;;;;;;;6.90;4.38;;;;;;;21.89;42.08;100166.16;4913180;29;20040;-95
2022/10/10 13:13:21;;;;;;;4.43;3.70;;;;;;;21.82;41.66;100147.47;4884994;29;20036;-93
2022/10/10 13:15:51;;;;;;;6.90;4.07;;;;;;;21.93;41.34;100162.44;4879425;29;20041;-96
2022/10/10 13:18:44;;;;;;;7.03;3.80;;;;;;;22.01;41.08;100180.00;4880307;29;20098;-96